Time;durP1;ratioP1;P1;durP2;ratioP2;P2;SDS_P1;SDS_P2;PMS_P1;PMS_P2;Temp;Humidity;BMP_temperature;BMP_pressure;BME280_temperature;BME280_humidity;BME280_pressure;Samples;Min_cycle;Max_cycle;Signal;HPM_P1;HPM_P2
2023/09/17 00:00:44;;;;;;;2.03;1.20;;;21.10;44.10;;;;;;4974071;28;20206;-53
2023/09/17 00:03:10;;;;;;;1.20;0.70;;;21.00;44.50;;;;;;4975914;28;20219;-51
2023/09/17 00:05:36;;;;;;;2.33;1.43;;;21.00;44.00;;;;;;4975852;28;20420;-53
2023/09/17 00:08:03;;;;;;;6.10;3.60;;;21.00;43.90;;;;;;4975939;28;20400;-53
2023/09/17 00:10:30;;;;;;;1.40;1.20;;;21.00;44.10;;;;;;4975843;28;20777;-52
2023/09/17 00:12:56;;;;;;;2.80;1.60;;;21.00;44.50;;;;;;4975648;28;20906;-51
2023/09/17 00:15:25;;;;;;;1.47;1.03;;;20.90;44.50;;;;;;4975833;28;20442;-51
2023/09/17 00:17:52;;;;;;;1.10;0.63;;;20.90;44.90;;;;;;4975695;28;20446;-52
2023/09/17 00:20:17;;;;;;;1.67;1.00;;;20.80;44.40;;;;;;4975782;28;20416;-51
2023/09/17 00:22:43;;;;;;;2.80;2.13;;;20.80;44.70;;;;;;4975474;28;20454;-51
2023/09/17 00:25:09;;;;;;;1.50;0.80;;;20.80;44.80;;;;;;4975520;28;20207;-52
2023/09/17 00:27:35;;;;;;;2.87;2.60;;;20.80;44.60;;;;;;4975633;28;20200;-51
2023/09/17 00:30:00;;;;;;;1.60;0.90;;;20.80;44.90;;;;;;4975548;28;20400;-53
2023/09/17 00:32:26;;;;;;;1.33;1.03;;;20.70;45.30;;;;;;4975364;28;20639;-51
2023/09/17 00:34:52;;;;;;;1.10;0.57;;;20.60;45.40;;;;;;4975517;28;20200;-52
2023/09/17 00:37:18;;;;;;;2.27;2.07;;;20.60;44.90;;;;;;4975369;28;20251;-51
2023/09/17 00:39:44;;;;;;;2.50;1.23;;;20.60;44.50;;;;;;4975333;28;20183;-51
2023/09/17 00:42:10;;;;;;;1.70;1.60;;;20.70;44.80;;;;;;4975290;28;20546;-52
2023/09/17 00:44:36;;;;;;;2.60;2.40;;;20.60;44.60;;;;;;4975395;28;20412;-51
2023/09/17 00:47:03;;;;;;;1.57;1.47;;;20.60;44.80;;;;;;4975373;28;20771;-50
2023/09/17 00:49:29;;;;;;;1.60;1.13;;;20.60;44.70;;;;;;4975165;28;20849;-51
2023/09/17 00:51:56;;;;;;;3.20;2.30;;;20.60;44.30;;;;;;4974913;28;20431;-51
2023/09/17 00:54:25;;;;;;;3.13;2.20;;;20.60;44.80;;;;;;4975089;28;20932;-51
2023/09/17 00:56:51;;;;;;;2.83;2.63;;;20.50;44.80;;;;;;4975289;28;20439;-52
2023/09/17 00:59:17;;;;;;;2.43;1.70;;;20.50;45.60;;;;;;4975185;28;20407;-51
2023/09/17 01:01:43;;;;;;;2.57;2.27;;;20.40;45.50;;;;;;4974707;28;20438;-51
2023/09/17 01:04:11;;;;;;;2.37;2.17;;;20.40;45.00;;;;;;4974867;28;20890;-54
2023/09/17 01:06:38;;;;;;;1.80;1.50;;;20.40;45.10;;;;;;4974725;28;21117;-51
2023/09/17 01:09:05;;;;;;;3.53;2.20;;;20.40;45.00;;;;;;4974822;28;20498;-51
2023/09/17 01:11:34;;;;;;;2.83;2.57;;;20.40;44.70;;;;;;4973985;28;20407;-51
2023/09/17 01:14:08;;;;;;;2.97;2.03;;;20.50;44.40;;;;;;4974416;28;20903;-53
2023/09/17 01:16:34;;;;;;;1.77;1.58;;;20.50;44.50;;;;;;4974767;28;20454;-53
2023/09/17 01:19:01;;;;;;;1.63;1.20;;;20.50;44.60;;;;;;4974561;28;20176;-52
2023/09/17 01:21:41;;;;;;;7.00;2.60;;;20.50;44.50;;;;;;4974656;28;20423;-52
2023/09/17 01:24:26;;;;;;;3.00;2.57;;;20.50;44.60;;;;;;4974764;28;20453;-51
2023/09/17 01:27:03;;;;;;;4.80;1.75;;;20.40;44.50;;;;;;4974322;28;20470;-50
2023/09/17 01:29:37;;;;;;;5.78;2.53;;;20.50;44.20;;;;;;4974472;28;20193;-51
2023/09/17 01:32:04;;;;;;;3.23;2.07;;;20.50;44.10;;;;;;4974249;28;20626;-51
2023/09/17 01:34:37;;;;;;;1.60;1.50;;;20.40;44.50;;;;;;4974308;28;20424;-50
2023/09/17 01:37:08;;;;;;;2.43;2.23;;;20.40;44.10;;;;;;4974282;28;20427;-52
2023/09/17 01:39:43;;;;;;;2.13;1.00;;;20.40;44.40;;;;;;4974291;28;20454;-50
2023/09/17 01:42:10;;;;;;;2.27;2.07;;;20.40;44.30;;;;;;4973917;28;20810;-51
2023/09/17 01:44:37;;;;;;;2.93;1.93;;;20.40;44.60;;;;;;4974483;28;20412;-51
2023/09/17 01:47:05;;;;;;;1.98;1.48;;;20.30;44.90;;;;;;4974098;28;20423;-50
2023/09/17 01:49:32;;;;;;;5.32;2.78;;;20.30;44.80;;;;;;4974002;28;20526;-51
2023/09/17 01:51:58;;;;;;;2.95;2.65;;;20.30;45.10;;;;;;4973874;28;20650;-52
2023/09/17 01:54:25;;;;;;;2.60;1.77;;;20.30;45.00;;;;;;4973993;28;20184;-51
2023/09/17 01:56:51;;;;;;;2.30;1.87;;;20.20;44.90;;;;;;4973886;28;20502;-51
2023/09/17 01:59:17;;;;;;;2.03;1.80;;;20.20;44.80;;;;;;4974130;28;20451;-52
2023/09/17 02:01:43;;;;;;;3.30;3.03;;;20.20;44.60;;;;;;4973745;28;20200;-52
2023/09/17 02:04:09;;;;;;;1.93;1.70;;;20.10;44.70;;;;;;4973829;28;20182;-53
2023/09/17 02:06:36;;;;;;;4.13;2.78;;;20.10;44.90;;;;;;4973765;28;20665;-52
2023/09/17 02:09:08;;;;;;;3.25;2.92;;;20.10;45.10;;;;;;4973754;28;20184;-51
2023/09/17 02:11:34;;;;;;;2.47;2.17;;;20.00;45.20;;;;;;4973665;28;20168;-52
2023/09/17 02:13:59;;;;;;;2.17;1.95;;;20.00;45.40;;;;;;4973930;28;20183;-52
2023/09/17 02:16:25;;;;;;;3.67;1.60;;;20.00;45.90;;;;;;4973790;28;20196;-51
2023/09/17 02:18:51;;;;;;;9.50;3.40;;;20.00;45.20;;;;;;4973609;28;20267;-52
2023/09/17 02:21:17;;;;;;;3.87;1.33;;;20.00;45.00;;;;;;4973477;28;20646;-52
2023/09/17 02:23:44;;;;;;;2.20;1.80;;;20.00;44.80;;;;;;4973256;28;20610;-52
2023/09/17 02:26:10;;;;;;;1.90;1.40;;;20.00;44.70;;;;;;4973193;28;20215;-51
2023/09/17 02:28:35;;;;;;;2.30;1.60;;;19.90;44.90;;;;;;4972868;28;20635;-52
2023/09/17 02:31:02;;;;;;;1.77;1.67;;;19.90;45.00;;;;;;4972607;28;20408;-52
2023/09/17 02:33:28;;;;;;;2.63;1.80;;;19.90;45.10;;;;;;4972588;28;20940;-51
2023/09/17 02:35:54;;;;;;;1.60;1.40;;;19.90;45.20;;;;;;4972577;28;20666;-50
2023/09/17 02:38:20;;;;;;;4.57;2.30;;;19.80;45.20;;;;;;4972491;28;20182;-51
2023/09/17 02:40:45;;;;;;;2.27;1.43;;;19.80;45.20;;;;;;4972711;28;20407;-51
2023/09/17 02:43:11;;;;;;;1.50;1.40;;;19.80;45.40;;;;;;4972397;28;20199;-50
2023/09/17 02:45:37;;;;;;;3.53;3.23;;;19.80;45.30;;;;;;4972440;28;20173;-51
2023/09/17 02:48:03;;;;;;;2.33;2.00;;;19.70;45.60;;;;;;4972429;28;20199;-51
2023/09/17 02:50:29;;;;;;;3.83;1.33;;;19.70;46.50;;;;;;4972462;28;20184;-51
2023/09/17 02:52:54;;;;;;;1.60;1.00;;;19.70;45.40;;;;;;4972135;28;20913;-51
2023/09/17 02:55:20;;;;;;;2.23;1.63;;;19.70;45.20;;;;;;4972404;28;20404;-50
2023/09/17 02:57:48;;;;;;;2.47;1.42;;;19.70;45.20;;;;;;4972426;28;20223;-52
2023/09/17 03:00:17;;;;;;;2.33;1.10;;;19.80;45.10;;;;;;4972192;28;20643;-51
2023/09/17 03:02:47;;;;;;;1.90;1.65;;;19.80;44.80;;;;;;4972052;28;20259;-51
2023/09/17 03:05:17;;;;;;;1.95;1.35;;;19.80;44.80;;;;;;4972387;28;20180;-52
2023/09/17 03:07:43;;;;;;;1.20;0.73;;;19.80;44.80;;;;;;4972135;28;20278;-49
2023/09/17 03:10:12;;;;;;;2.97;2.67;;;19.80;44.70;;;;;;4972255;28;20254;-50
2023/09/17 03:12:38;;;;;;;2.28;1.63;;;19.80;44.70;;;;;;4972091;28;20426;-50
2023/09/17 03:15:08;;;;;;;3.22;1.80;;;19.80;44.70;;;;;;4972265;28;20195;-52
2023/09/17 03:17:37;;;;;;;2.33;1.48;;;19.80;44.60;;;;;;4972019;28;20219;-51
2023/09/17 03:20:13;;;;;;;2.10;1.90;;;19.70;44.70;;;;;;4972010;28;20184;-52
2023/09/17 03:22:40;;;;;;;1.50;1.23;;;19.70;44.90;;;;;;4971977;28;20211;-52
2023/09/17 03:25:06;;;;;;;2.28;1.20;;;19.60;44.80;;;;;;4931137;28;1189227;-52
2023/09/17 03:27:33;;;;;;;2.78;2.47;;;19.60;45.20;;;;;;4972856;28;20666;-52
2023/09/17 03:30:00;;;;;;;1.67;1.25;;;19.60;45.20;;;;;;4972935;28;20183;-52
2023/09/17 03:32:26;;;;;;;3.25;2.17;;;19.50;45.40;;;;;;4972583;28;20255;-51
2023/09/17 03:34:52;;;;;;;1.90;1.40;;;19.60;45.20;;;;;;4972924;28;20643;-50
2023/09/17 03:37:18;;;;;;;2.50;1.60;;;19.60;45.00;;;;;;4976452;28;20279;-52
2023/09/17 03:40:07;;;;;;;3.23;1.53;;;19.60;45.10;;;;;;4976626;28;20208;-51
2023/09/17 03:42:37;;;;;;;1.70;1.35;;;19.60;45.10;;;;;;4976250;28;20287;-51
2023/09/17 03:45:09;;;;;;;1.40;1.00;;;19.60;44.70;;;;;;4976315;28;20559;-52
2023/09/17 03:47:36;;;;;;;1.30;0.98;;;19.60;44.80;;;;;;4976485;28;20196;-52
2023/09/17 03:50:04;;;;;;;1.83;1.63;;;19.60;44.70;;;;;;4976520;28;20638;-48
2023/09/17 03:52:32;;;;;;;2.00;1.73;;;19.60;45.30;;;;;;4976317;28;20637;-52
2023/09/17 03:54:58;;;;;;;1.50;1.20;;;19.40;45.10;;;;;;4976359;28;20664;-52
2023/09/17 03:57:24;;;;;;;2.33;0.60;;;19.50;45.20;;;;;;4976166;28;20242;-51
2023/09/17 03:59:50;;;;;;;1.50;1.23;;;19.50;45.30;;;;;;4976082;28;20191;-51
2023/09/17 04:02:17;;;;;;;3.30;1.17;;;19.50;45.10;;;;;;4975926;28;20232;-50
2023/09/17 04:04:43;;;;;;;2.03;1.55;;;19.50;45.20;;;;;;4976272;28;20435;-52
2023/09/17 04:07:09;;;;;;;2.07;1.87;;;19.50;45.40;;;;;;4975930;28;20674;-50
2023/09/17 04:09:35;;;;;;;1.83;1.63;;;19.50;45.40;;;;;;4976039;28;20449;-52
2023/09/17 04:12:04;;;;;;;1.53;0.83;;;19.50;45.40;;;;;;4975728;28;20279;-51
2023/09/17 04:14:33;;;;;;;2.13;1.10;;;19.50;45.40;;;;;;4975960;28;20415;-52
2023/09/17 04:17:02;;;;;;;1.80;1.38;;;19.50;45.20;;;;;;4975751;28;20207;-50
2023/09/17 04:19:32;;;;;;;3.08;0.77;;;19.50;45.10;;;;;;4975769;28;20172;-50
2023/09/17 04:21:58;;;;;;;2.03;1.15;;;19.50;45.30;;;;;;4975486;28;20187;-51
2023/09/17 04:24:24;;;;;;;6.47;1.98;;;19.50;45.10;;;;;;4975724;28;20579;-51
2023/09/17 04:26:52;;;;;;;1.48;0.82;;;19.50;45.50;;;;;;4975434;28;20211;-51
2023/09/17 04:29:19;;;;;;;1.48;1.10;;;19.50;45.40;;;;;;4975739;28;20583;-52
2023/09/17 04:31:46;;;;;;;2.30;1.00;;;19.50;45.40;;;;;;4975519;28;20312;-51
2023/09/17 04:34:13;;;;;;;2.13;1.55;;;19.50;45.20;;;;;;4975673;28;20196;-49
2023/09/17 04:36:39;;;;;;;2.00;1.38;;;19.50;45.10;;;;;;4975439;28;20196;-52
2023/09/17 04:39:09;;;;;;;2.05;1.58;;;19.40;45.00;;;;;;4975337;28;20268;-48
2023/09/17 04:41:35;;;;;;;1.40;1.15;;;19.40;44.80;;;;;;4975281;28;20164;-50
2023/09/17 04:44:03;;;;;;;1.60;1.30;;;19.40;44.80;;;;;;4975185;28;20207;-51
2023/09/17 04:46:29;;;;;;;1.55;1.08;;;19.40;44.80;;;;;;4975188;28;20211;-49
2023/09/17 04:48:55;;;;;;;1.38;1.15;;;19.40;44.90;;;;;;4975181;28;20176;-49
2023/09/17 04:51:21;;;;;;;1.80;1.47;;;19.30;45.30;;;;;;4975061;28;20175;-52
2023/09/17 04:53:47;;;;;;;1.52;1.05;;;19.30;45.40;;;;;;4975222;28;20450;-52
2023/09/17 04:56:13;;;;;;;1.73;0.70;;;19.30;45.40;;;;;;4975238;28;20200;-47
2023/09/17 04:58:39;;;;;;;2.97;2.35;;;19.20;45.60;;;;;;4975174;28;20184;-53
2023/09/17 05:01:06;;;;;;;1.40;1.13;;;19.20;45.90;;;;;;4974744;28;20516;-53
2023/09/17 05:03:32;;;;;;;2.22;2.03;;;19.20;46.30;;;;;;4975015;28;20200;-49
2023/09/17 05:05:58;;;;;;;1.48;0.95;;;19.10;46.20;;;;;;4974891;28;20196;-52
2023/09/17 05:08:24;;;;;;;1.57;1.23;;;19.10;46.00;;;;;;4974885;28;20171;-49
2023/09/17 05:10:50;;;;;;;1.30;1.20;;;19.10;45.80;;;;;;4974977;28;20511;-50
2023/09/17 05:13:16;;;;;;;2.50;1.57;;;19.20;45.90;;;;;;4974670;28;20438;-51
2023/09/17 05:15:41;;;;;;;1.80;1.13;;;19.20;45.50;;;;;;4974658;28;20443;-49
2023/09/17 05:18:09;;;;;;;1.30;0.97;;;19.30;45.60;;;;;;4974969;28;20176;-52
2023/09/17 05:20:41;;;;;;;1.40;0.90;;;19.30;45.90;;;;;;4974651;28;20207;-50
2023/09/17 05:23:07;;;;;;;1.20;0.55;;;19.30;46.00;;;;;;4974430;28;20330;-52
2023/09/17 05:25:34;;;;;;;1.60;1.03;;;19.20;46.60;;;;;;4974393;28;20267;-49
2023/09/17 05:28:03;;;;;;;1.27;0.90;;;19.20;46.70;;;;;;4974575;28;20450;-51
2023/09/17 05:30:28;;;;;;;1.20;0.90;;;19.20;46.80;;;;;;4974542;28;20256;-51
2023/09/17 05:32:54;;;;;;;2.50;1.57;;;19.20;46.80;;;;;;4973240;28;20606;-50
2023/09/17 05:35:20;;;;;;;1.10;0.70;;;19.30;46.80;;;;;;4974312;28;20176;-50
2023/09/17 05:37:46;;;;;;;1.93;1.03;;;19.30;46.70;;;;;;4974445;28;20219;-48
2023/09/17 05:40:11;;;;;;;1.47;1.20;;;19.30;46.80;;;;;;4974514;28;20184;-51
2023/09/17 05:42:37;;;;;;;1.37;0.70;;;19.40;47.00;;;;;;4974040;28;20207;-51
2023/09/17 05:45:04;;;;;;;1.00;0.40;;;19.50;47.10;;;;;;4974290;28;20176;-51
2023/09/17 05:47:30;;;;;;;1.10;0.73;;;19.50;47.10;;;;;;4974238;28;20436;-50
2023/09/17 05:49:57;;;;;;;2.40;1.97;;;19.60;47.20;;;;;;4974034;28;20173;-50
2023/09/17 05:52:23;;;;;;;1.30;0.90;;;19.70;47.30;;;;;;4974106;28;20187;-49
2023/09/17 05:54:49;;;;;;;1.30;0.93;;;19.80;47.10;;;;;;4974079;28;20184;-52
2023/09/17 05:57:16;;;;;;;2.00;0.90;;;20.00;46.90;;;;;;4973964;28;20196;-50
2023/09/17 05:59:42;;;;;;;1.50;0.85;;;20.10;47.20;;;;;;4973624;28;20190;-49
2023/09/17 06:02:11;;;;;;;2.13;1.27;;;20.20;47.30;;;;;;4973737;28;20184;-54
2023/09/17 06:04:37;;;;;;;1.75;0.63;;;20.40;47.20;;;;;;4973798;28;20442;-50
2023/09/17 06:07:03;;;;;;;1.10;0.88;;;20.50;47.00;;;;;;4973783;28;20192;-50
2023/09/17 06:09:30;;;;;;;1.40;1.13;;;20.60;46.90;;;;;;4973804;28;20198;-51
2023/09/17 06:11:57;;;;;;;1.80;0.95;;;20.80;46.70;;;;;;4973486;28;20829;-52
2023/09/17 06:14:23;;;;;;;2.95;1.83;;;20.90;46.80;;;;;;4973825;28;20180;-49
2023/09/17 06:16:49;;;;;;;1.75;1.45;;;21.00;46.70;;;;;;4973630;28;20296;-48
2023/09/17 06:19:14;;;;;;;2.57;1.13;;;21.10;46.70;;;;;;4973542;28;20209;-51
2023/09/17 06:21:41;;;;;;;1.57;0.97;;;21.20;46.70;;;;;;4973626;28;20260;-50
2023/09/17 06:24:07;;;;;;;1.37;0.90;;;21.40;46.90;;;;;;4973590;28;20204;-51
2023/09/17 06:26:34;;;;;;;1.33;1.00;;;21.50;46.80;;;;;;4973341;28;20443;-53
2023/09/17 06:29:00;;;;;;;3.67;0.90;;;21.60;46.50;;;;;;4973465;28;20419;-51
2023/09/17 06:31:26;;;;;;;2.27;1.83;;;21.70;46.50;;;;;;4973278;28;20407;-49
2023/09/17 06:33:53;;;;;;;1.80;1.03;;;21.70;46.50;;;;;;4973271;28;20192;-50
2023/09/17 06:36:19;;;;;;;1.53;0.97;;;21.90;46.30;;;;;;4973579;28;20439;-50
2023/09/17 06:38:46;;;;;;;2.60;0.70;;;21.90;46.30;;;;;;4973522;28;20461;-53
2023/09/17 06:41:12;;;;;;;1.50;1.10;;;22.10;46.90;;;;;;4971167;28;20203;-51
2023/09/17 06:43:40;;;;;;;1.70;1.20;;;22.20;46.20;;;;;;4972813;28;20830;-51
2023/09/17 06:46:06;;;;;;;2.00;1.80;;;22.30;46.10;;;;;;4972307;28;20767;-51
2023/09/17 06:48:32;;;;;;;2.20;0.97;;;22.50;45.90;;;;;;4973082;28;20411;-48
2023/09/17 06:50:57;;;;;;;2.27;1.50;;;22.50;46.00;;;;;;4973127;28;20418;-50
2023/09/17 06:53:24;;;;;;;1.87;0.73;;;22.60;45.80;;;;;;4973067;28;20176;-52
2023/09/17 06:55:50;;;;;;;1.10;0.63;;;22.70;45.90;;;;;;4972968;28;20259;-52
2023/09/17 06:58:18;;;;;;;1.47;1.03;;;22.80;45.90;;;;;;4973036;28;20415;-49
2023/09/17 07:00:45;;;;;;;2.27;1.47;;;22.90;46.00;;;;;;4972983;28;20415;-49
2023/09/17 07:03:12;;;;;;;1.40;0.90;;;23.10;45.90;;;;;;4972965;28;20459;-52
2023/09/17 07:05:37;;;;;;;1.77;1.40;;;23.20;45.70;;;;;;4973069;28;20419;-50
2023/09/17 07:08:03;;;;;;;1.40;1.20;;;23.40;45.60;;;;;;4973005;28;20418;-50
2023/09/17 07:10:29;;;;;;;1.87;1.53;;;23.50;45.70;;;;;;4973959;28;20187;-52
2023/09/17 07:12:55;;;;;;;2.43;1.50;;;23.60;45.30;;;;;;4976866;28;20411;-49
2023/09/17 07:15:21;;;;;;;1.77;1.23;;;23.70;45.10;;;;;;4976897;28;20172;-52
2023/09/17 07:17:47;;;;;;;2.97;2.67;;;23.80;44.90;;;;;;4977038;28;20200;-51
2023/09/17 07:20:13;;;;;;;2.03;1.27;;;23.90;44.40;;;;;;4976917;28;20418;-50
2023/09/17 07:22:42;;;;;;;1.50;1.10;;;23.90;44.00;;;;;;4976460;28;20207;-52
2023/09/17 07:25:08;;;;;;;1.20;0.87;;;24.00;44.10;;;;;;4976767;28;20412;-52
2023/09/17 07:27:36;;;;;;;1.47;1.10;;;24.10;44.10;;;;;;4976884;28;20431;-49
2023/09/17 07:30:03;;;;;;;1.50;0.90;;;24.20;44.30;;;;;;4976528;28;20176;-50
2023/09/17 07:32:29;;;;;;;1.93;1.13;;;24.30;44.10;;;;;;4976409;28;20413;-51
2023/09/17 07:34:55;;;;;;;1.60;1.23;;;24.40;44.10;;;;;;4976516;28;20434;-51
2023/09/17 07:37:22;;;;;;;1.27;0.87;;;24.50;44.30;;;;;;4975581;28;20509;-52
2023/09/17 07:39:56;;;;;;;2.60;1.90;;;24.70;44.10;;;;;;4975359;28;20403;-50
2023/09/17 07:42:22;;;;;;;1.10;0.60;;;24.80;43.30;;;;;;4976152;28;20848;-49
2023/09/17 07:44:48;;;;;;;10.53;0.97;;;25.00;43.30;;;;;;4976751;28;20494;-52
2023/09/17 07:47:14;;;;;;;1.63;0.57;;;25.10;42.90;;;;;;4976360;28;20526;-48
2023/09/17 07:49:40;;;;;;;3.77;1.67;;;25.10;42.60;;;;;;4976459;28;20172;-52
2023/09/17 07:52:06;;;;;;;4.80;1.13;;;25.20;42.80;;;;;;4976191;28;20410;-48
2023/09/17 07:54:42;;;;;;;1.73;1.10;;;25.30;42.50;;;;;;4976276;28;20176;-49
2023/09/17 07:57:12;;;;;;;1.03;0.47;;;25.40;42.30;;;;;;4976041;28;20430;-52
2023/09/17 07:59:38;;;;;;;1.60;1.17;;;25.50;42.10;;;;;;4976397;28;20411;-52
2023/09/17 08:02:04;;;;;;;1.30;0.70;;;25.60;42.20;;;;;;4976012;28;20502;-51
2023/09/17 08:04:30;;;;;;;2.63;1.77;;;25.70;42.10;;;;;;4976030;28;20411;-52
2023/09/17 08:06:59;;;;;;;1.30;0.90;;;25.80;42.10;;;;;;4976004;28;20423;-53
2023/09/17 08:09:25;;;;;;;1.80;1.00;;;25.90;41.80;;;;;;4975886;28;20180;-49
2023/09/17 08:11:51;;;;;;;1.30;0.47;;;26.10;42.20;;;;;;4975645;28;20419;-49
2023/09/17 08:14:17;;;;;;;1.50;1.07;;;26.20;41.90;;;;;;4975928;28;20399;-52
2023/09/17 08:16:44;;;;;;;1.07;0.40;;;26.40;41.60;;;;;;4975801;28;20454;-51
2023/09/17 08:19:10;;;;;;;1.20;0.80;;;26.50;41.60;;;;;;4975813;28;20453;-49
2023/09/17 08:21:35;;;;;;;1.30;0.67;;;26.50;41.00;;;;;;4975205;28;20408;-51
2023/09/17 08:24:01;;;;;;;1.10;0.50;;;26.60;41.00;;;;;;4975546;28;20461;-51
2023/09/17 08:26:30;;;;;;;1.00;0.40;;;26.70;40.50;;;;;;4975495;28;20204;-49
2023/09/17 08:29:00;;;;;;;1.57;0.77;;;26.70;39.20;;;;;;4975802;28;20176;-47
2023/09/17 08:31:27;;;;;;;2.67;2.43;;;26.70;39.40;;;;;;4975360;28;20770;-50
2023/09/17 08:33:54;;;;;;;1.80;1.33;;;26.70;38.10;;;;;;4975554;28;20915;-49
2023/09/17 08:36:21;;;;;;;1.13;0.53;;;26.70;38.40;;;;;;4975446;28;20492;-51
2023/09/17 08:38:52;;;;;;;1.10;0.63;;;26.70;39.20;;;;;;4975370;28;20411;-51
2023/09/17 08:41:24;;;;;;;1.13;0.53;;;26.80;39.60;;;;;;4975234;28;20466;-50
2023/09/17 08:43:55;;;;;;;1.77;1.60;;;26.80;39.40;;;;;;4975474;28;20549;-53
2023/09/17 08:46:24;;;;;;;1.10;0.53;;;26.90;38.40;;;;;;4975432;28;20802;-50
2023/09/17 08:48:50;;;;;;;1.20;0.60;;;27.00;39.10;;;;;;4975282;28;20782;-48
2023/09/17 08:51:18;;;;;;;1.10;0.50;;;27.00;39.40;;;;;;4974930;28;20411;-51
2023/09/17 08:54:05;;;;;;;2.20;1.57;;;27.20;38.90;;;;;;4975401;28;20434;-50
2023/09/17 08:56:33;;;;;;;1.40;0.73;;;27.30;39.20;;;;;;4975102;28;20440;-49
2023/09/17 08:59:06;;;;;;;1.37;0.70;;;27.40;39.00;;;;;;4975163;28;20438;-51
2023/09/17 09:01:33;;;;;;;3.00;1.53;;;27.50;38.30;;;;;;4974810;28;20422;-51
2023/09/17 09:04:01;;;;;;;1.87;0.83;;;27.60;36.90;;;;;;4974917;28;20462;-49
2023/09/17 09:06:29;;;;;;;1.47;1.37;;;27.70;38.00;;;;;;4975150;28;20797;-50
2023/09/17 09:08:55;;;;;;;1.10;0.50;;;27.80;38.00;;;;;;4974791;28;20408;-53
2023/09/17 09:11:21;;;;;;;1.10;0.60;;;27.80;36.20;;;;;;4974642;28;20809;-52
2023/09/17 09:13:50;;;;;;;1.90;1.37;;;27.90;37.60;;;;;;4974768;28;20501;-51
2023/09/17 09:16:17;;;;;;;1.10;0.50;;;28.00;36.20;;;;;;4974681;28;20427;-49
2023/09/17 09:18:43;;;;;;;2.23;0.60;;;28.00;37.00;;;;;;4974715;28;20413;-52
2023/09/17 09:21:10;;;;;;;1.40;0.90;;;28.10;37.10;;;;;;4974656;28;20535;-51
2023/09/17 09:23:36;;;;;;;1.00;0.43;;;28.20;36.90;;;;;;4974502;28;20490;-50
2023/09/17 09:26:03;;;;;;;1.37;1.07;;;28.30;37.10;;;;;;4974479;28;20530;-49
2023/09/17 09:28:33;;;;;;;1.40;0.70;;;28.40;35.80;;;;;;4974536;28;20889;-50
2023/09/17 09:30:59;;;;;;;1.70;0.77;;;28.50;36.60;;;;;;4974335;28;20404;-52
2023/09/17 09:33:26;;;;;;;1.20;0.70;;;28.60;37.20;;;;;;4973676;28;20898;-50
2023/09/17 09:35:54;;;;;;;1.20;0.73;;;28.70;36.50;;;;;;4974495;28;20474;-51
2023/09/17 09:38:20;;;;;;;1.50;0.87;;;28.90;35.20;;;;;;4974391;28;20910;-51
2023/09/17 09:40:46;;;;;;;1.40;1.23;;;28.90;36.00;;;;;;4974233;28;20408;-49
2023/09/17 09:43:31;;;;;;;1.33;0.87;;;29.00;36.80;;;;;;4974222;28;20456;-49
2023/09/17 09:46:04;;;;;;;1.30;0.87;;;29.10;34.50;;;;;;4974198;28;20423;-51
2023/09/17 09:48:37;;;;;;;1.30;0.63;;;29.10;34.70;;;;;;4974298;28;20409;-53
2023/09/17 09:51:04;;;;;;;2.27;1.37;;;29.10;35.00;;;;;;4974253;28;20405;-51
2023/09/17 09:53:29;;;;;;;1.00;0.40;;;29.20;35.60;;;;;;4974137;28;20498;-49
2023/09/17 09:55:56;;;;;;;1.10;0.50;;;29.20;35.90;;;;;;4973893;28;20581;-52
2023/09/17 09:58:22;;;;;;;1.47;0.73;;;29.40;35.30;;;;;;4974270;28;20180;-49
2023/09/17 10:00:48;;;;;;;1.20;0.53;;;29.50;35.90;;;;;;4974042;28;20490;-52
2023/09/17 10:03:17;;;;;;;1.17;0.80;;;29.60;35.10;;;;;;4973782;28;20456;-50
2023/09/17 10:05:44;;;;;;;1.17;0.70;;;29.70;34.70;;;;;;4973899;28;20401;-48
2023/09/17 10:08:12;;;;;;;1.53;1.13;;;29.80;33.30;;;;;;4973712;28;20944;-52
2023/09/17 10:10:38;;;;;;;1.47;1.10;;;29.80;33.20;;;;;;4973745;28;20409;-51
2023/09/17 10:13:12;;;;;;;1.10;0.40;;;29.90;32.70;;;;;;4973592;28;20465;-50
2023/09/17 10:15:41;;;;;;;1.40;0.93;;;29.90;33.10;;;;;;4973698;28;20776;-50
2023/09/17 10:18:10;;;;;;;1.40;0.80;;;30.00;33.50;;;;;;4973738;28;20415;-52
2023/09/17 10:20:37;;;;;;;1.43;0.87;;;30.10;33.00;;;;;;4973569;28;20449;-50
2023/09/17 10:23:05;;;;;;;1.13;0.63;;;30.10;32.50;;;;;;4973334;28;20878;-52
2023/09/17 10:25:31;;;;;;;1.70;1.43;;;30.20;33.10;;;;;;4973500;28;20940;-52
2023/09/17 10:28:00;;;;;;;1.03;0.50;;;30.40;32.70;;;;;;4973656;28;20423;-49
2023/09/17 10:30:26;;;;;;;2.47;1.00;;;30.40;31.00;;;;;;4973513;28;20407;-50
2023/09/17 10:32:53;;;;;;;1.50;0.67;;;30.40;32.60;;;;;;4973300;28;20419;-52
2023/09/17 10:35:19;;;;;;;1.00;0.33;;;30.40;32.70;;;;;;4973406;28;20417;-50
2023/09/17 10:37:47;;;;;;;1.50;0.80;;;30.40;32.30;;;;;;4973283;28;20739;-49
2023/09/17 10:40:13;;;;;;;1.40;0.90;;;30.50;31.40;;;;;;4973484;28;20411;-52
2023/09/17 10:42:40;;;;;;;1.20;0.43;;;30.50;33.00;;;;;;4973217;28;20450;-51
2023/09/17 10:45:12;;;;;;;1.10;0.70;;;30.60;33.30;;;;;;4973141;28;20852;-50
2023/09/17 10:47:42;;;;;;;1.40;0.90;;;30.70;31.80;;;;;;4973117;28;20442;-53
2023/09/17 10:50:12;;;;;;;1.63;0.60;;;30.90;31.70;;;;;;4973074;28;20905;-49
2023/09/17 10:52:38;;;;;;;1.90;0.83;;;31.00;31.60;;;;;;4973216;28;20406;-51
2023/09/17 10:55:08;;;;;;;1.00;0.40;;;31.00;31.90;;;;;;4973337;28;20418;-51
2023/09/17 10:57:40;;;;;;;1.10;0.50;;;31.10;32.20;;;;;;4973209;28;20514;-50
2023/09/17 11:00:18;;;;;;;1.00;0.40;;;31.30;32.70;;;;;;4973142;28;20411;-52
2023/09/17 11:02:55;;;;;;;1.10;0.60;;;31.50;32.90;;;;;;4972852;28;20462;-51
2023/09/17 11:05:24;;;;;;;3.00;1.57;;;31.70;32.60;;;;;;4973278;28;20429;-52
2023/09/17 11:08:00;;;;;;;1.40;0.80;;;31.80;31.40;;;;;;4972985;28;20429;-52
2023/09/17 11:10:27;;;;;;;1.03;0.43;;;31.70;31.30;;;;;;4973053;28;20403;-52
2023/09/17 11:12:53;;;;;;;1.50;0.73;;;31.70;31.50;;;;;;4972793;28;20835;-50
2023/09/17 11:15:19;;;;;;;1.10;0.60;;;31.70;31.90;;;;;;4973031;28;20918;-51
2023/09/17 11:17:47;;;;;;;1.30;0.93;;;31.70;32.20;;;;;;4972897;28;20782;-50
2023/09/17 11:20:17;;;;;;;1.20;0.73;;;31.80;31.10;;;;;;4972986;28;20415;-54
2023/09/17 11:22:44;;;;;;;1.10;0.60;;;31.90;31.10;;;;;;4972800;28;20506;-51
2023/09/17 11:25:10;;;;;;;1.33;0.63;;;31.90;30.40;;;;;;4972780;28;20447;-51
2023/09/17 11:28:10;;;;;;;1.77;0.80;;;32.00;30.80;;;;;;4972758;28;20842;-51
2023/09/17 11:30:59;;;;;;;1.87;0.90;;;32.10;30.70;;;;;;4965398;28;20416;-51
2023/09/17 11:33:26;;;;;;;1.57;0.63;;;32.10;30.00;;;;;;4972802;28;20411;-51
2023/09/17 11:35:54;;;;;;;1.03;0.50;;;32.10;30.30;;;;;;4972613;28;20977;-52
2023/09/17 11:38:24;;;;;;;1.67;0.63;;;32.20;31.30;;;;;;4973005;28;20473;-51
2023/09/17 11:41:07;;;;;;;1.33;0.93;;;32.30;31.20;;;;;;4972871;28;20416;-52
2023/09/17 11:43:37;;;;;;;1.13;0.50;;;32.40;31.20;;;;;;4972858;28;20546;-51
2023/09/17 11:46:10;;;;;;;1.47;0.63;;;32.50;31.20;;;;;;4972715;28;20419;-52
2023/09/17 11:48:37;;;;;;;1.63;0.90;;;32.50;29.60;;;;;;4972906;28;20411;-53
2023/09/17 11:51:28;;;;;;;1.47;1.07;;;32.40;30.20;;;;;;4972471;28;20759;-51
2023/09/17 11:54:06;;;;;;;1.00;0.30;;;32.30;29.90;;;;;;4972634;28;20503;-51
2023/09/17 11:56:45;;;;;;;1.10;0.60;;;32.20;30.00;;;;;;4973664;28;20434;-51
2023/09/17 11:59:15;;;;;;;1.50;0.50;;;32.10;30.80;;;;;;4976160;28;20402;-51
2023/09/17 12:01:49;;;;;;;1.00;0.40;;;32.10;29.70;;;;;;4976127;28;20399;-52
2023/09/17 12:04:16;;;;;;;1.10;0.40;;;32.10;30.20;;;;;;4976108;28;20462;-51
2023/09/17 12:06:48;;;;;;;1.00;0.40;;;32.10;31.10;;;;;;4976046;28;20423;-53
2023/09/17 12:09:23;;;;;;;1.00;0.50;;;32.20;31.20;;;;;;4975965;28;20403;-51
2023/09/17 12:11:50;;;;;;;1.30;0.63;;;32.20;31.20;;;;;;4976060;28;20774;-50
2023/09/17 12:14:19;;;;;;;1.50;0.97;;;32.30;30.30;;;;;;4976116;28;20474;-53
2023/09/17 12:16:48;;;;;;;1.40;0.80;;;32.40;30.50;;;;;;4975780;28;20439;-53
2023/09/17 12:19:14;;;;;;;2.47;1.57;;;32.50;28.60;;;;;;4975755;28;20936;-51
2023/09/17 12:21:41;;;;;;;2.07;1.20;;;32.50;29.50;;;;;;4975518;28;20422;-51
2023/09/17 12:24:10;;;;;;;1.27;0.70;;;32.50;30.10;;;;;;4975746;28;20461;-53
2023/09/17 12:26:58;;;;;;;1.20;0.60;;;32.40;31.10;;;;;;4975560;28;20462;-51
2023/09/17 12:29:24;;;;;;;1.10;0.53;;;32.40;31.20;;;;;;4975645;28;20410;-53
2023/09/17 12:31:50;;;;;;;1.00;0.40;;;32.40;31.50;;;;;;4975415;28;20419;-51
2023/09/17 12:34:16;;;;;;;1.47;0.90;;;32.40;31.30;;;;;;4975510;28;20183;-51
2023/09/17 12:36:45;;;;;;;1.00;0.40;;;32.30;30.90;;;;;;4975539;28;20191;-49
2023/09/17 12:39:11;;;;;;;1.20;0.60;;;32.20;31.00;;;;;;4975519;28;20404;-50
2023/09/17 12:41:37;;;;;;;1.30;0.60;;;32.20;31.40;;;;;;4975221;28;20412;-53
2023/09/17 12:44:02;;;;;;;1.20;0.63;;;32.10;30.40;;;;;;4975396;28;20473;-52
2023/09/17 12:46:28;;;;;;;1.50;1.20;;;32.10;31.10;;;;;;4975282;28;20700;-51
2023/09/17 12:48:54;;;;;;;1.63;0.63;;;32.10;31.30;;;;;;4975171;28;20725;-52